Time;durP1;ratioP1;P1;durP2;ratioP2;P2;SDS_P1;SDS_P2;PMS_P1;PMS_P2;Temp;Humidity;BMP_temperature;BMP_pressure;BME280_temperature;BME280_humidity;BME280_pressure;Samples;Min_cycle;Max_cycle;Signal;HPM_P1;HPM_P2
2021/04/02 11:56:58;;;;;;;;;;;;;;;;;;5145079;27;19956;-92
2021/04/02 11:59:25;;;;;;;;;;;;;;;;;;5120043;28;20370;-92
2021/04/02 12:01:51;;;;;;;;;;;;;;;;;;5135912;28;19946;-92
2021/04/02 12:04:17;;;;;;;;;;;;;;;;;;5122261;28;19923;-94
2021/04/02 12:06:44;;;;;;;;;;;;;;;;;;5138475;28;20061;-94
2021/04/02 12:09:13;;;;;;;;;;;;;;;;;;5108407;28;20365;-93
2021/04/02 12:11:39;;;;;;;;;;;;;;;;;;5144467;27;19938;-92
2021/04/02 12:14:06;;;;;;;;;;;;;;;;;;5124707;28;20015;-93
2021/04/02 12:16:32;;;;;;;;;;;;;;;;;;5119672;28;20037;-94
2021/04/02 12:18:58;;;;;;;;;;;;;;;;;;5110070;28;19928;-93
2021/04/02 12:21:24;;;;;;;;;;;;;;;;;;5113557;28;19931;-94
2021/04/02 13:30:29;;;;;;;3.40;0.93;;;;;;;;;;5063427;27;20359;-61
2021/04/02 13:32:56;;;;;;;3.72;0.85;;;;;;;;;;5081923;28;20076;-58
2021/04/02 13:35:24;;;;;;;3.15;0.82;;;;;;;;;;4998997;27;83934;-63
2021/04/02 13:37:51;;;;;;;2.63;0.60;;;;;;;;;;5081499;27;74679;-64
2021/04/02 13:40:17;;;;;;;1.38;0.50;;;;;;;;;;5111622;27;20112;-63
2021/04/02 13:42:43;;;;;;;2.75;0.50;;;;;;;;;;5064868;27;20039;-59
2021/04/02 13:45:09;;;;;;;;;;;;;;;;;;5068571;28;20039;-55
2021/04/02 13:47:36;;;;;;;3.38;0.63;;;;;;;;;;5094540;28;19923;-55
2021/04/02 13:50:05;;;;;;;2.08;0.60;;;29.20;88.10;;;;;;5075507;28;20068;-57
2021/04/02 13:52:30;;;;;;;2.58;0.60;;;29.80;49.20;;;;;;4975796;27;67223;-64
2021/04/02 13:54:56;;;;;;;1.58;0.75;;;26.50;35.40;;;;;;5052451;28;20466;-61
2021/04/02 13:57:23;;;;;;;1.23;0.70;;;25.40;36.80;;;;;;5102064;28;20039;-55
2021/04/02 13:59:48;;;;;;;1.10;0.70;;;24.90;37.20;;;;;;5086485;28;20040;-55
2021/04/02 14:02:14;;;;;;;3.60;0.60;;;24.50;37.50;;;;;;5106741;28;20077;-55
2021/04/02 14:04:40;;;;;;;3.53;0.50;;;24.30;37.70;;;;;;5103115;28;20036;-59
2021/04/02 14:07:06;;;;;;;1.70;1.05;;;24.10;38.10;;;;;;5110566;28;20498;-54
2021/04/02 14:09:32;;;;;;;2.63;0.60;;;24.00;38.60;;;;;;5104736;28;20113;-55
2021/04/02 14:11:58;;;;;;;2.15;0.68;;;23.90;38.30;;;;;;5104977;28;20032;-56
2021/04/02 14:14:26;;;;;;;3.75;0.93;;;23.80;38.60;;;;;;5087300;28;20071;-56
2021/04/02 14:16:52;;;;;;;2.17;0.65;;;23.70;38.50;;;;;;5090424;28;20036;-56
2021/04/02 14:19:17;;;;;;;3.08;0.60;;;23.70;38.60;;;;;;5111803;28;20514;-55
2021/04/02 14:21:43;;;;;;;2.75;0.60;;;23.60;38.80;;;;;;5105037;28;20441;-56
2021/04/02 14:24:09;;;;;;;6.57;1.08;;;23.50;38.80;;;;;;5109070;28;20122;-56
2021/04/02 14:26:35;;;;;;;5.35;0.90;;;23.50;38.80;;;;;;5116828;27;20032;-55
2021/04/02 14:29:02;;;;;;;6.28;0.90;;;23.40;38.80;;;;;;5099074;28;20048;-55
2021/04/02 14:31:28;;;;;;;6.05;0.98;;;23.30;38.80;;;;;;5101945;28;20039;-56
2021/04/02 14:33:54;;;;;;;2.70;0.70;;;23.30;39.60;;;;;;5103774;28;20051;-55
2021/04/02 14:36:19;;;;;;;2.75;0.75;;;23.30;39.00;;;;;;5082942;28;20044;-56
2021/04/02 14:38:45;;;;;;;2.55;0.70;;;23.20;39.20;;;;;;5105739;28;20487;-56
2021/04/02 14:41:11;;;;;;;2.38;0.80;;;23.10;39.20;;;;;;5092712;28;20105;-56
2021/04/02 14:43:37;;;;;;;2.90;0.80;;;23.10;39.20;;;;;;5101830;28;20039;-56
2021/04/02 14:46:02;;;;;;;2.35;0.90;;;23.10;39.40;;;;;;5094828;28;20463;-55
2021/04/02 14:48:28;;;;;;;3.33;0.80;;;23.00;40.10;;;;;;5092041;28;20115;-55
2021/04/02 14:50:55;;;;;;;2.10;0.52;;;23.00;39.50;;;;;;5093013;28;20147;-56
2021/04/02 14:53:20;;;;;;;2.92;0.63;;;23.00;39.60;;;;;;5106113;28;20491;-55
2021/04/02 14:55:46;;;;;;;2.35;1.00;;;23.00;39.80;;;;;;5088129;28;20055;-56
2021/04/02 14:58:12;;;;;;;2.67;0.85;;;22.90;39.60;;;;;;5103823;28;20039;-55
2021/04/02 15:00:44;;;;;;;3.05;0.55;;;22.90;39.70;;;;;;5092704;28;20047;-55
2021/04/02 15:03:10;;;;;;;3.63;1.00;;;22.90;39.70;;;;;;5086032;28;20374;-55
2021/04/02 15:05:36;;;;;;;2.58;0.77;;;22.80;39.80;;;;;;5089699;28;20028;-56
2021/04/02 15:08:02;;;;;;;5.18;1.20;;;22.80;40.00;;;;;;5110178;27;20058;-57
2021/04/02 15:10:28;;;;;;;5.57;0.75;;;22.80;40.20;;;;;;5088002;28;20043;-71
2021/04/02 15:12:53;;;;;;;4.25;1.20;;;22.90;40.10;;;;;;5058734;28;20047;-71
2021/04/02 15:15:20;;;;;;;5.88;0.90;;;23.00;40.10;;;;;;5084091;27;20080;-70
2021/04/02 15:17:46;;;;;;;4.90;0.90;;;23.00;40.10;;;;;;5078667;28;20043;-72
2021/04/02 15:51:31;;;;;;;6.85;1.13;;;23.20;40.10;;;;;;5044105;27;63088;-59
2021/04/02 15:55:48;;;;;;;12.88;2.97;;;23.20;34.70;;;;;;5007357;27;84441;-85
2021/04/02 15:58:15;;;;;;;13.68;2.80;;;20.00;37.70;;;;;;4879989;28;85150;-85
2021/04/02 16:00:40;;;;;;;18.10;3.67;;;17.10;42.70;;;;;;5050333;28;20043;-84
2021/04/02 16:03:06;;;;;;;12.20;2.45;;;14.60;48.80;;;;;;5029850;28;20056;-84
2021/04/02 16:05:33;;;;;;;14.20;3.30;;;12.80;54.40;;;;;;4895527;28;99647;-84
2021/04/02 16:07:59;;;;;;;17.23;3.30;;;11.50;59.40;;;;;;5015381;28;20044;-84
2021/04/02 16:10:27;;;;;;;16.30;2.83;;;10.70;62.60;;;;;;5002021;28;20037;-83
2021/04/02 16:12:55;;;;;;;25.05;3.38;;;10.00;66.70;;;;;;4995419;28;20083;-85
2021/04/02 16:15:21;;;;;;;21.17;3.60;;;9.50;69.10;;;;;;5032489;28;20548;-84
2021/04/02 16:17:47;;;;;;;24.55;3.17;;;9.20;69.80;;;;;;5044466;28;20040;-87
2021/04/02 16:20:13;;;;;;;23.75;3.70;;;9.00;70.30;;;;;;5011566;28;20412;-86
2021/04/02 16:22:38;;;;;;;24.55;3.10;;;8.90;72.10;;;;;;5047145;28;20045;-87
2021/04/02 16:25:05;;;;;;;20.42;3.63;;;8.90;71.80;;;;;;5045714;28;20041;-87
2021/04/02 16:27:32;;;;;;;17.98;4.25;;;8.80;72.00;;;;;;5026153;28;20064;-87
2021/04/02 16:29:58;;;;;;;23.95;3.42;;;8.70;74.00;;;;;;5011768;28;20064;-86
2021/04/02 16:32:24;;;;;;;22.75;4.05;;;8.60;73.60;;;;;;5028072;28;20039;-87
2021/04/02 16:34:50;;;;;;;22.95;5.15;;;8.60;75.40;;;;;;5042641;28;20055;-86
2021/04/02 16:37:16;;;;;;;19.88;3.90;;;8.60;76.30;;;;;;5021771;28;20034;-87
2021/04/02 16:39:42;;;;;;;20.02;5.05;;;8.60;75.30;;;;;;5036341;28;20048;-86
2021/04/02 16:42:08;;;;;;;14.27;3.95;;;8.60;73.20;;;;;;5040946;28;20037;-87
2021/04/02 16:44:34;;;;;;;20.30;3.65;;;8.60;73.80;;;;;;5036941;28;20482;-87
2021/04/02 16:46:59;;;;;;;26.48;3.97;;;8.50;75.70;;;;;;5047739;28;20489;-85
2021/04/02 16:49:25;;;;;;;18.75;3.80;;;8.50;75.00;;;;;;5027924;28;20115;-86
2021/04/02 16:51:51;;;;;;;23.23;4.30;;;8.50;75.60;;;;;;5015226;28;20076;-86
2021/04/02 16:54:17;;;;;;;25.73;5.20;;;8.40;76.80;;;;;;5028418;28;20046;-86
2021/04/02 16:56:43;;;;;;;24.63;4.63;;;8.40;76.20;;;;;;5030536;28;20048;-86
2021/04/02 16:59:09;;;;;;;24.48;4.32;;;8.30;76.50;;;;;;5034106;28;20048;-86
2021/04/02 17:01:35;;;;;;;23.35;4.82;;;8.30;77.10;;;;;;5010247;28;20137;-83
2021/04/02 17:04:00;;;;;;;21.85;5.30;;;8.30;76.40;;;;;;5012627;28;20045;-84
2021/04/02 17:06:26;;;;;;;22.25;4.65;;;8.30;76.70;;;;;;5022839;28;20040;-84
2021/04/02 17:08:52;;;;;;;25.15;4.55;;;8.30;77.60;;;;;;5009562;28;20038;-85
2021/04/02 17:11:18;;;;;;;25.58;4.10;;;8.20;78.40;;;;;;5031792;28;20039;-86
2021/04/02 17:13:43;;;;;;;22.60;6.22;;;8.20;78.50;;;;;;5041950;28;20052;-84
2021/04/02 17:16:09;;;;;;;27.23;5.60;;;8.20;78.80;;;;;;5031680;28;20041;-85
2021/04/02 17:18:35;;;;;;;26.50;6.10;;;8.20;78.50;;;;;;5005645;28;20093;-86
2021/04/02 17:21:02;;;;;;;24.00;5.47;;;8.10;78.30;;;;;;5030482;28;20044;-85
2021/04/02 17:23:27;;;;;;;24.50;6.15;;;8.10;78.40;;;;;;5020866;28;20137;-84
2021/04/02 17:25:53;;;;;;;25.38;5.22;;;8.10;77.70;;;;;;4976262;28;20116;-82
2021/04/02 17:28:19;;;;;;;21.70;5.00;;;8.10;77.10;;;;;;4989299;28;20083;-82
2021/04/02 17:30:44;;;;;;;24.48;6.20;;;8.10;77.80;;;;;;5010492;28;20038;-82
2021/04/02 17:33:10;;;;;;;27.35;6.40;;;8.00;77.00;;;;;;5005548;28;20037;-82
2021/04/02 17:35:36;;;;;;;17.85;4.93;;;8.00;77.10;;;;;;5007820;28;20152;-84
2021/04/02 17:38:02;;;;;;;31.00;5.97;;;7.90;76.20;;;;;;4978537;28;20061;-85
2021/04/02 17:40:28;;;;;;;26.02;7.50;;;7.90;76.10;;;;;;5026812;28;20409;-84
2021/04/02 17:42:54;;;;;;;34.95;7.50;;;7.90;76.00;;;;;;5010671;28;20600;-84
2021/04/02 17:45:20;;;;;;;21.90;6.10;;;7.80;77.10;;;;;;5027149;28;20109;-85
2021/04/02 17:47:47;;;;;;;37.13;7.65;;;7.80;76.40;;;;;;4992347;28;20060;-83
2021/04/02 17:50:13;;;;;;;31.40;8.05;;;7.80;76.70;;;;;;5026548;28;20034;-84
2021/04/02 17:52:38;;;;;;;23.67;7.20;;;7.80;76.90;;;;;;5011143;28;20041;-83
2021/04/02 17:55:05;;;;;;;28.00;7.95;;;7.70;78.20;;;;;;5026161;28;20171;-83
2021/04/02 17:57:31;;;;;;;26.08;7.50;;;7.70;78.50;;;;;;5010014;28;20485;-85
2021/04/02 17:59:57;;;;;;;24.02;7.03;;;7.60;78.70;;;;;;4992909;28;20045;-86
2021/04/02 18:02:23;;;;;;;29.33;8.10;;;7.50;78.10;;;;;;5009691;28;20511;-84
2021/04/02 18:04:49;;;;;;;31.27;7.68;;;7.50;78.20;;;;;;4993640;28;20033;-82
2021/04/02 18:07:15;;;;;;;37.38;8.07;;;7.50;78.70;;;;;;5044054;28;20040;-83
2021/04/02 18:09:41;;;;;;;35.67;9.68;;;7.50;78.60;;;;;;5025460;28;20160;-82
2021/04/02 18:12:07;;;;;;;29.98;6.57;;;7.50;78.70;;;;;;5008058;28;20125;-84
2021/04/02 18:14:36;;;;;;;32.03;6.80;;;7.50;79.00;;;;;;5007245;28;20033;-82
2021/04/02 18:17:07;;;;;;;27.27;6.13;;;7.40;79.50;;;;;;4991548;28;20107;-83
2021/04/02 18:19:34;;;;;;;35.55;6.70;;;7.30;78.70;;;;;;5023133;28;20033;-82
2021/04/02 18:21:59;;;;;;;28.92;6.57;;;7.30;78.50;;;;;;5009571;28;20071;-83
2021/04/02 18:24:25;;;;;;;31.52;6.93;;;7.20;78.70;;;;;;5025285;28;20045;-83
2021/04/02 18:26:51;;;;;;;35.53;8.73;;;7.20;78.90;;;;;;4993279;28;20030;-82
2021/04/02 18:29:17;;;;;;;32.65;7.28;;;7.20;79.40;;;;;;5010429;28;20043;-82
2021/04/02 18:31:43;;;;;;;31.50;6.55;;;7.10;78.80;;;;;;4962972;28;20131;-83
2021/04/02 18:34:09;;;;;;;29.73;6.80;;;7.20;79.80;;;;;;4999304;28;20076;-83
2021/04/02 18:36:35;;;;;;;33.22;7.15;;;7.20;78.90;;;;;;5027988;28;20048;-84
2021/04/02 18:39:01;;;;;;;40.00;6.85;;;7.20;79.20;;;;;;5005967;28;20036;-83
2021/04/02 18:41:27;;;;;;;40.15;6.43;;;7.20;81.20;;;;;;5012967;28;20033;-82
2021/04/02 18:44:02;;;;;;;38.55;7.70;;;7.20;81.80;;;;;;5027943;28;20032;-83
2021/04/02 18:46:28;;;;;;;36.42;6.80;;;7.10;81.50;;;;;;5045985;28;20404;-85
2021/04/02 18:48:55;;;;;;;42.83;8.30;;;7.10;81.70;;;;;;5062257;28;20112;-83
2021/04/02 18:51:21;;;;;;;36.75;6.80;;;7.00;82.70;;;;;;5062209;28;20407;-81
2021/04/02 18:53:46;;;;;;;34.88;8.27;;;7.00;82.30;;;;;;5047185;28;20059;-81
2021/04/02 18:56:12;;;;;;;36.33;7.32;;;7.00;83.10;;;;;;5048373;28;20558;-83
2021/04/02 18:58:39;;;;;;;41.20;6.35;;;7.00;83.90;;;;;;5013181;28;20052;-81
2021/04/02 19:01:05;;;;;;;31.63;7.20;;;7.00;83.50;;;;;;5044560;28;20094;-81
2021/04/02 19:03:32;;;;;;;33.08;7.30;;;7.00;83.40;;;;;;5047133;28;20570;-82
2021/04/02 19:05:58;;;;;;;32.35;6.68;;;7.00;83.60;;;;;;5044171;28;20061;-80
2021/04/02 19:08:24;;;;;;;32.92;7.50;;;7.00;84.10;;;;;;5034590;28;20056;-81
2021/04/02 19:10:50;;;;;;;29.83;6.00;;;7.00;83.80;;;;;;5013149;28;20029;-82
2021/04/02 19:13:16;;;;;;;32.53;7.88;;;7.10;82.80;;;;;;5029635;28;20484;-82
2021/04/02 19:15:44;;;;;;;29.95;6.72;;;7.10;82.20;;;;;;5008990;28;20043;-80
2021/04/02 19:18:10;;;;;;;28.50;6.75;;;7.10;81.20;;;;;;5045409;28;20124;-81
2021/04/02 19:20:37;;;;;;;30.20;7.07;;;7.20;80.70;;;;;;5029964;28;20029;-79
2021/04/02 19:23:03;;;;;;;32.75;6.75;;;7.20;79.90;;;;;;5063361;28;20552;-81
2021/04/02 19:25:29;;;;;;;35.85;7.97;;;7.30;79.70;;;;;;5044875;28;20067;-81
2021/04/02 19:27:55;;;;;;;36.17;6.80;;;7.20;79.40;;;;;;5061267;28;20600;-81
2021/04/02 19:30:22;;;;;;;41.53;7.53;;;7.20;79.90;;;;;;5043666;28;20032;-82
2021/04/02 19:32:48;;;;;;;28.02;7.07;;;7.10;79.90;;;;;;5011816;28;20051;-82
2021/04/02 19:35:15;;;;;;;29.80;5.85;;;7.10;80.00;;;;;;5028809;28;20041;-80
2021/04/02 19:37:45;;;;;;;34.58;7.40;;;7.20;79.90;;;;;;5047993;28;20048;-81
2021/04/02 19:40:12;;;;;;;34.97;8.82;;;7.10;79.90;;;;;;5010784;28;20059;-80
2021/04/02 19:42:38;;;;;;;34.55;6.60;;;7.20;80.00;;;;;;5026246;28;20408;-81
2021/04/02 19:45:07;;;;;;;25.20;5.63;;;7.10;79.90;;;;;;5025961;28;20528;-83
2021/04/02 19:47:33;;;;;;;37.05;5.97;;;7.10;78.80;;;;;;5025868;28;20056;-82
2021/04/02 19:49:58;;;;;;;28.73;4.88;;;7.10;75.80;;;;;;5042719;28;20106;-82
2021/04/02 19:52:24;;;;;;;27.70;4.50;;;7.10;74.20;;;;;;5043868;28;20038;-81
2021/04/02 19:54:50;;;;;;;28.80;4.95;;;7.10;73.50;;;;;;5030933;28;20466;-81
2021/04/02 19:57:16;;;;;;;24.42;5.00;;;7.10;73.00;;;;;;5008435;28;20076;-81
2021/04/02 19:59:42;;;;;;;24.35;4.45;;;7.20;73.00;;;;;;5026524;28;20475;-80
2021/04/02 20:02:08;;;;;;;31.65;6.13;;;7.20;72.90;;;;;;5025454;28;20136;-81
2021/04/02 20:04:34;;;;;;;28.17;4.90;;;7.10;72.50;;;;;;5009276;28;20156;-81
2021/04/02 20:07:00;;;;;;;26.52;4.20;;;7.10;72.50;;;;;;5025186;28;20037;-81
2021/04/02 20:09:27;;;;;;;27.63;3.85;;;7.10;71.40;;;;;;5013595;28;20052;-81
2021/04/02 20:11:52;;;;;;;24.42;4.20;;;7.00;70.70;;;;;;5057736;28;20052;-81
2021/04/02 20:14:18;;;;;;;21.40;4.10;;;6.90;71.30;;;;;;5028018;28;20033;-80
2021/04/02 20:16:44;;;;;;;29.00;3.40;;;6.90;71.50;;;;;;5010172;28;20781;-81
2021/04/02 20:19:11;;;;;;;28.92;4.93;;;6.90;71.10;;;;;;5023024;28;20713;-81
2021/04/02 20:21:36;;;;;;;17.20;3.38;;;6.80;72.50;;;;;;5043318;28;20045;-81
2021/04/02 20:24:05;;;;;;;21.33;4.35;;;6.80;73.90;;;;;;5027878;28;20094;-82
2021/04/02 20:26:32;;;;;;;27.70;4.30;;;6.70;74.80;;;;;;5029937;28;20032;-81
2021/04/02 20:28:58;;;;;;;26.67;3.92;;;6.70;76.20;;;;;;5008616;28;20033;-81
2021/04/02 20:31:24;;;;;;;26.13;4.28;;;6.60;78.30;;;;;;5023426;28;20044;-80
2021/04/02 20:33:50;;;;;;;30.70;5.45;;;6.60;80.10;;;;;;5042347;28;20152;-81
2021/04/02 20:36:16;;;;;;;32.72;5.20;;;6.40;79.90;;;;;;5041709;28;20485;-81
2021/04/02 20:38:46;;;;;;;28.50;4.65;;;6.50;79.90;;;;;;5010159;28;20106;-81
2021/04/02 20:41:12;;;;;;;30.08;4.30;;;6.40;79.90;;;;;;5043441;28;20037;-81
2021/04/02 20:43:37;;;;;;;28.02;5.47;;;6.40;80.20;;;;;;5015068;28;20040;-83
2021/04/02 20:46:04;;;;;;;25.27;4.65;;;6.40;77.90;;;;;;5032941;28;20045;-85
2021/04/02 20:48:30;;;;;;;19.48;3.08;;;6.40;77.00;;;;;;5037614;28;20089;-84
2021/04/02 20:50:55;;;;;;;20.73;3.40;;;6.40;75.10;;;;;;5027317;28;20025;-86
2021/04/02 20:53:21;;;;;;;25.30;3.97;;;6.40;74.40;;;;;;5029269;28;20036;-82
2021/04/02 20:55:47;;;;;;;24.67;4.40;;;6.40;75.20;;;;;;5046160;28;20067;-83
2021/04/02 20:58:13;;;;;;;21.33;2.80;;;6.40;73.50;;;;;;5011511;28;20392;-84
2021/04/02 21:00:39;;;;;;;16.05;2.70;;;6.40;70.90;;;;;;5046054;28;20076;-85
2021/04/02 21:03:05;;;;;;;20.27;3.05;;;6.40;72.10;;;;;;5029665;28;20044;-84
2021/04/02 21:05:32;;;;;;;19.35;3.30;;;6.30;73.80;;;;;;5010856;28;20059;-87
2021/04/02 21:07:59;;;;;;;21.45;2.85;;;6.30;74.40;;;;;;5028745;28;20091;-85
2021/04/02 21:10:26;;;;;;;16.33;3.30;;;6.30;74.90;;;;;;5046351;28;20033;-86
2021/04/02 21:12:53;;;;;;;26.67;3.17;;;6.20;75.80;;;;;;5028045;28;20044;-84
2021/04/02 21:15:19;;;;;;;19.80;3.28;;;6.20;76.00;;;;;;5049529;28;20590;-83
2021/04/02 21:17:45;;;;;;;20.30;3.25;;;6.10;76.10;;;;;;5032296;28;20500;-85
2021/04/02 21:20:14;;;;;;;18.20;2.70;;;6.10;74.50;;;;;;5043280;28;20040;-81
2021/04/02 21:22:40;;;;;;;20.08;3.25;;;6.10;74.50;;;;;;5008769;28;20408;-81
2021/04/02 21:25:08;;;;;;;20.55;2.83;;;6.20;70.40;;;;;;5024061;28;20110;-81
2021/04/02 21:27:34;;;;;;;20.90;2.85;;;6.20;70.50;;;;;;5043387;28;20033;-82
2021/04/02 21:30:03;;;;;;;21.50;3.38;;;6.30;70.50;;;;;;5029273;28;20150;-82
2021/04/02 21:32:34;;;;;;;23.33;4.35;;;6.30;70.20;;;;;;5044867;28;20041;-81
2021/04/02 21:35:00;;;;;;;19.83;3.15;;;6.40;70.50;;;;;;5049230;28;20471;-81
2021/04/02 21:37:27;;;;;;;22.70;3.60;;;6.30;72.30;;;;;;5027816;28;20063;-81
2021/04/02 21:39:54;;;;;;;21.75;3.80;;;6.30;73.20;;;;;;5039550;28;20033;-81
2021/04/02 21:42:20;;;;;;;19.02;3.25;;;6.30;73.40;;;;;;5026585;28;20033;-82
2021/04/02 21:44:46;;;;;;;28.05;4.25;;;6.20;74.10;;;;;;5010118;28;20040;-81
2021/04/02 21:47:12;;;;;;;24.30;3.13;;;6.20;74.80;;;;;;5033658;28;20063;-81
2021/04/02 21:49:37;;;;;;;27.42;4.03;;;6.20;75.50;;;;;;5014709;28;20115;-81
2021/04/02 21:52:05;;;;;;;19.75;3.30;;;6.20;75.20;;;;;;5040335;28;20546;-81
2021/04/02 21:54:31;;;;;;;20.55;3.05;;;6.20;75.40;;;;;;5028864;28;20060;-82
2021/04/02 21:56:58;;;;;;;18.15;2.97;;;6.20;75.60;;;;;;5044084;28;20890;-81
2021/04/02 21:59:24;;;;;;;26.05;3.72;;;6.20;76.50;;;;;;5044495;28;20029;-81
2021/04/02 22:01:50;;;;;;;26.58;3.38;;;6.10;77.10;;;;;;5046886;28;20059;-81
2021/04/02 22:04:17;;;;;;;22.65;4.45;;;6.00;77.00;;;;;;5026009;28;20048;-81
2021/04/02 22:06:43;;;;;;;24.95;3.08;;;6.00;77.20;;;;;;5044731;28;20135;-82
2021/04/02 22:09:09;;;;;;;24.55;3.22;;;6.00;77.20;;;;;;5044270;28;20446;-82
2021/04/02 22:11:35;;;;;;;22.92;3.30;;;6.00;76.90;;;;;;5019523;28;20059;-81
2021/04/02 22:14:01;;;;;;;19.67;3.80;;;6.00;75.90;;;;;;5046856;28;20048;-81
2021/04/02 22:16:27;;;;;;;21.80;3.72;;;6.00;74.70;;;;;;5028927;28;20836;-81
2021/04/02 22:18:54;;;;;;;25.95;3.45;;;6.00;73.40;;;;;;5026315;28;20099;-82
2021/04/02 22:21:20;;;;;;;25.35;3.83;;;6.10;72.90;;;;;;5025652;28;20489;-82
2021/04/02 22:23:52;;;;;;;24.02;3.22;;;6.10;72.50;;;;;;5026799;28;20095;-81
2021/04/02 22:26:18;;;;;;;;;;;6.20;69.40;;;;;;5041062;28;20029;-81
2021/04/02 22:28:45;;;;;;;20.95;4.03;;;6.20;70.30;;;;;;5028277;28;19921;-81
2021/04/02 22:31:18;;;;;;;25.58;3.38;;;6.30;69.80;;;;;;5044344;28;20159;-81
2021/04/02 22:33:50;;;;;;;20.10;3.75;;;6.30;69.20;;;;;;5027034;28;20507;-82
2021/04/02 22:36:17;;;;;;;24.65;3.90;;;6.40;69.40;;;;;;5019822;28;20447;-81
2021/04/02 22:38:43;;;;;;;21.30;3.97;;;6.40;69.30;;;;;;5040378;28;20033;-81
2021/04/02 22:41:09;;;;;;;22.00;4.38;;;6.40;69.40;;;;;;5040986;28;20783;-81
2021/04/02 22:43:36;;;;;;;20.48;3.38;;;6.50;69.30;;;;;;5024132;28;20033;-81
2021/04/02 22:46:03;;;;;;;24.40;3.38;;;6.50;69.60;;;;;;5026901;28;20045;-81
2021/04/02 22:48:28;;;;;;;20.85;3.78;;;6.50;70.00;;;;;;5043999;28;20037;-81
2021/04/02 22:50:54;;;;;;;22.55;3.60;;;6.60;70.60;;;;;;5024327;28;20033;-81
2021/04/02 22:53:23;;;;;;;29.17;4.80;;;6.60;71.00;;;;;;5040964;28;20044;-81
2021/04/02 22:55:49;;;;;;;24.63;3.92;;;6.60;70.80;;;;;;5053609;28;20037;-81
2021/04/02 22:58:19;;;;;;;31.42;4.15;;;6.60;71.00;;;;;;5024991;28;20492;-83
2021/04/02 23:00:47;;;;;;;23.10;3.63;;;6.60;71.10;;;;;;5041446;28;20029;-82
2021/04/02 23:03:14;;;;;;;37.50;4.53;;;6.60;71.10;;;;;;5040295;28;20033;-82
2021/04/02 23:05:41;;;;;;;28.05;4.00;;;6.70;71.10;;;;;;5037080;28;20103;-81
2021/04/02 23:08:08;;;;;;;23.20;3.78;;;6.70;71.30;;;;;;4955383;28;20045;-82
2021/04/02 23:10:40;;;;;;;28.63;4.10;;;6.70;71.10;;;;;;5042577;28;20032;-82
2021/04/02 23:13:06;;;;;;;40.47;4.65;;;6.70;71.00;;;;;;5045597;28;20029;-82
2021/04/02 23:15:33;;;;;;;28.92;4.60;;;6.70;71.00;;;;;;5046344;28;20048;-82
2021/04/02 23:17:59;;;;;;;29.92;5.00;;;6.70;70.70;;;;;;5026795;28;20049;-81
2021/04/02 23:20:25;;;;;;;24.85;3.70;;;6.70;71.00;;;;;;5041456;28;20032;-81
2021/04/02 23:22:51;;;;;;;24.27;4.35;;;6.70;70.00;;;;;;5042998;28;20037;-81
2021/04/02 23:25:19;;;;;;;17.63;3.15;;;6.80;69.50;;;;;;5026147;28;20114;-82
2021/04/02 23:27:45;;;;;;;29.67;4.22;;;6.80;69.80;;;;;;5043130;28;20044;-82
2021/04/02 23:30:21;;;;;;;25.35;3.90;;;6.80;69.50;;;;;;5040162;28;20037;-81
2021/04/02 23:33:06;;;;;;;22.67;4.13;;;6.80;69.40;;;;;;5024174;28;20766;-82
2021/04/02 23:35:41;;;;;;;28.48;4.18;;;6.80;69.30;;;;;;5028282;28;20098;-82
2021/04/02 23:38:09;;;;;;;28.83;4.32;;;6.70;69.80;;;;;;5027262;28;20137;-81
2021/04/02 23:40:44;;;;;;;26.65;3.55;;;6.70;70.80;;;;;;5043615;28;20072;-82
2021/04/02 23:43:13;;;;;;;28.60;5.03;;;6.70;70.60;;;;;;5028323;28;20123;-81
2021/04/02 23:45:41;;;;;;;25.75;3.88;;;6.70;70.70;;;;;;5021583;28;20041;-82
2021/04/02 23:48:09;;;;;;;37.00;5.28;;;6.70;71.30;;;;;;5024764;28;20037;-81
2021/04/02 23:50:37;;;;;;;35.10;5.18;;;6.70;72.50;;;;;;5025052;28;20053;-82
2021/04/02 23:53:04;;;;;;;32.50;5.13;;;6.70;72.40;;;;;;5042975;28;20082;-81
2021/04/02 23:55:30;;;;;;;31.73;4.63;;;6.70;72.50;;;;;;5039092;28;20121;-81
2021/04/02 23:57:56;;;;;;;29.52;5.32;;;6.70;73.70;;;;;;5043400;28;20029;-82
